Sunday, December 16, 2018, 3:10 PM GMT
Back to Local

CWEW, L'Assomption

Location: , , Canada Lat: 45.817
Local Time: 3:10 PM GMT (15:10 GMT) Lon: -73.433
Time Zone: GMT Elev: 68 ft

Show me the last for .
Show Coded

Time T Td Feel RH Dir Speed Gust Alt SLP Vis Weather Sky Remarks
2018-12-16 14:00 27 24 19 87 20° 7 - - 30.23 0 None
2018-12-16 13:00 24 23 20 95 360° 3 - - 30.24 0 None
2018-12-16 12:00 24 23 20 93 360° 3 - - 30.23 0 None
2018-12-16 11:00 24 22 - 93 360° 2 - - 30.24 0 None
2018-12-16 10:00 25 23 - 92 20° 1 - - 30.25 0 1-hr Precip Total: 0.01"
2018-12-16 09:00 27 24 - 89 20° 1 - - 30.26 0 None
2018-12-16 08:00 29 25 25 86 30° 3 - - 30.29 0 None
2018-12-16 07:00 28 26 - 88 20° 2 - - 30.29 0 None
2018-12-16 06:00 29 26 - 89 360° 2 - - 30.30 0 None
2018-12-16 05:00 29 26 - 88 360° 1 - - 30.31 0 None
2018-12-16 04:00 28 26 - 91 340° 2 - - 30.32 0 None
2018-12-16 03:00 31 27 28 83 340° 3 - - 30.33 0 None
2018-12-16 02:00 36 29 32 74 340° 5 - - 30.33 0 None
2018-12-16 01:00 37 29 32 73 350° 6 - - 30.34 0 None
2018-12-16 00:00 35 31 - 87 260° 1 - - 30.33 0 None
2018-12-15 23:00 36 32 - 84 280° 2 - - 30.31 0 None
2018-12-15 22:00 36 31 - 84 - Calm - - 30.29 0 None
2018-12-15 21:00 37 31 - 78 250° 1 - - 30.29 0 None
2018-12-15 20:00 39 31 36 75 250° 3 - - 30.26 0 None
2018-12-15 19:00 39 31 37 73 250° 3 - - 30.25 0 None
2018-12-15 18:00 39 31 37 74 240° 3 - - 30.23 0 None
2018-12-15 17:00 38 33 34 83 220° 5 - - 30.25 0 None
2018-12-15 16:00 37 33 35 83 240° 3 - - 30.24 0 None

Support USWX by starting your Amazon purchase here.